Time;durP1;ratioP1;P1;durP2;ratioP2;P2;SDS_P1;SDS_P2;PMS_P1;PMS_P2;Temp;Humidity;BMP_temperature;BMP_pressure;BME280_temperature;BME280_humidity;BME280_pressure;Samples;Min_cycle;Max_cycle;Signal;HPM_P1;HPM_P2
2022/01/27 00:05:25;;;;;;;;;;;;;;;;;;5015049;28;20008;-18
2022/01/27 00:13:01;;;;;;;;;;;;;;;;;;5015069;28;19975;-18
2022/01/27 00:15:31;;;;;;;;;;;;;;;;;;5015343;28;20287;-18
2022/01/27 00:18:02;;;;;;;;;;;;;;;;;;5015328;28;19925;-18
2022/01/27 00:20:28;;;;;;;;;;;;;;;;;;5014902;28;19914;-19
2022/01/27 00:22:54;;;;;;;;;;;;;;;;;;5014736;28;20355;-18
2022/01/27 00:25:20;;;;;;;;;;;;;;;;;;5014906;28;19909;-18
2022/01/27 00:27:46;;;;;;;;;;;;;;;;;;5015494;28;19914;-17
2022/01/27 00:30:12;;;;;;;;;;;;;;;;;;5014906;28;20332;-16
2022/01/27 00:32:38;;;;;;;;;;;;;;;;;;5013814;28;20000;-17
2022/01/27 00:35:05;;;;;;;;;;;;;;;;;;5014788;28;19914;-17
2022/01/27 00:37:31;;;;;;;;;;;;;;;;;;5014875;28;19913;-17
2022/01/27 00:39:57;;;;;;;;;;;;;;;;;;5015363;28;19956;-17
2022/01/27 00:42:24;;;;;;;;;;;;;;;;;;5014564;28;19926;-17
2022/01/27 00:44:50;;;;;;;;;;;;;;;;;;5014571;28;19948;-17
2022/01/27 00:47:16;;;;;;;;;;;;;;;;;;5014985;28;19913;-17
2022/01/27 00:49:42;;;;;;;;;;;;;;;;;;5014700;28;19924;-17
2022/01/27 00:52:14;;;;;;;;;;;;;;;;;;5014563;28;19932;-16
2022/01/27 00:54:40;;;;;;;;;;;;;;;;;;5015432;28;19917;-17
2022/01/27 00:57:19;;;;;;;;;;;;;;;;;;5014597;28;19913;-16
2022/01/27 00:59:56;;;;;;;;;;;;;;;;;;5016752;28;20034;-17
2022/01/27 01:02:38;;;;;;;;;;;;;;;;;;5018462;28;20194;-16
2022/01/27 01:07:53;;;;;;;;;;;;;;;;;;5018968;28;19914;-16
2022/01/27 01:17:55;;;;;;;;;;;;;;;;;;5018161;28;19909;-17
2022/01/27 01:31:32;;;;;;;;;;;;;;;;;;5017978;28;20253;-16
2022/01/27 01:34:12;;;;;;;;;;;;;;;;;;5018092;28;19948;-16
2022/01/27 01:36:45;;;;;;;;;;;;;;;;;;5018152;28;19914;-17
2022/01/27 01:39:12;;;;;;;;;;;;;;;;;;5017781;28;19914;-17
2022/01/27 01:41:38;;;;;;;;;;;;;;;;;;5017735;28;20005;-16
2022/01/27 01:44:04;;;;;;;;;;;;;;;;;;5017560;28;19918;-16
2022/01/27 01:46:30;;;;;;;;;;;;;;;;;;5017661;28;20004;-17
2022/01/27 01:48:56;;;;;;;;;;;;;;;;;;5017597;28;20051;-17
2022/01/27 01:51:22;;;;;;;;;;;;;;;;;;5017425;28;19914;-17
2022/01/27 01:53:48;;;;;;;;;;;;;;;;;;5017465;28;19915;-17
2022/01/27 01:56:15;;;;;;;;;;;;;;;;;;5018203;28;19921;-16
2022/01/27 01:58:40;;;;;;;;;;;;;;;;;;5017713;28;20272;-17
2022/01/27 02:01:07;;;;;;;;;;;;;;;;;;5017317;28;19979;-17
2022/01/27 02:03:33;;;;;;;;;;;;;;;;;;5017357;28;19971;-16
2022/01/27 02:05:59;;;;;;;;;;;;;;;;;;5017036;28;19959;-17
2022/01/27 02:19:32;;;;;;;;;;;;;;;;;;5017291;28;19924;-16
2022/01/27 02:21:58;;;;;;;;;;;;;;;;;;5017056;28;19917;-17
2022/01/27 02:24:24;;;;;;;;;;;;;;;;;;5016905;28;19909;-16
2022/01/27 02:26:50;;;;;;;;;;;;;;;;;;5017067;28;19909;-17
2022/01/27 02:29:16;;;;;;;;;;;;;;;;;;5017077;28;19924;-17
2022/01/27 02:31:42;;;;;;;;;;;;;;;;;;5016815;28;20348;-16
2022/01/27 02:34:08;;;;;;;;;;;;;;;;;;5017301;28;19917;-17
2022/01/27 02:36:34;;;;;;;;;;;;;;;;;;5016989;28;19920;-17
2022/01/27 02:39:00;;;;;;;;;;;;;;;;;;5016707;28;20299;-17
2022/01/27 02:41:26;;;;;;;;;;;;;;;;;;5016778;28;20025;-17
2022/01/27 02:43:52;;;;;;;;;;;;;;;;;;5016479;28;19909;-17
2022/01/27 02:46:18;;;;;;;;;;;;;;;;;;5016521;28;19925;-16
2022/01/27 02:48:45;;;;;;;;;;;;;;;;;;5016963;28;20055;-16
2022/01/27 02:51:11;;;;;;;;;;;;;;;;;;5016408;28;19913;-16
2022/01/27 02:53:37;;;;;;;;;;;;;;;;;;5016279;28;19913;-17
2022/01/27 02:56:03;;;;;;;;;;;;;;;;;;5016574;28;19914;-18
2022/01/27 02:58:29;;;;;;;;;;;;;;;;;;5016507;28;19913;-17
2022/01/27 03:00:55;;;;;;;;;;;;;;;;;;5016382;28;19917;-16
2022/01/27 03:03:21;;;;;;;;;;;;;;;;;;5016380;28;19909;-17
2022/01/27 03:05:46;;;;;;;;;;;;;;;;;;5015931;28;19921;-16
2022/01/27 03:08:12;;;;;;;;;;;;;;;;;;5016335;28;19916;-17
2022/01/27 03:10:39;;;;;;;;;;;;;;;;;;5016010;28;19957;-17
2022/01/27 03:13:05;;;;;;;;;;;;;;;;;;5015884;28;19909;-17
2022/01/27 03:15:31;;;;;;;;;;;;;;;;;;5016205;28;20352;-17
2022/01/27 03:17:57;;;;;;;;;;;;;;;;;;5016184;28;19916;-16
2022/01/27 03:20:31;;;;;;;;;;;;;;;;;;5014810;28;20256;-16
2022/01/27 03:22:57;;;;;;;;;;;;;;;;;;5015702;28;19916;-16
2022/01/27 03:25:23;;;;;;;;;;;;;;;;;;5016069;28;20260;-17
2022/01/27 03:27:49;;;;;;;;;;;;;;;;;;5015809;28;19913;-16
2022/01/27 03:30:17;;;;;;;;;;;;;;;;;;5015919;28;19972;-17
2022/01/27 03:32:43;;;;;;;;;;;;;;;;;;5015572;28;19975;-17
2022/01/27 03:35:09;;;;;;;;;;;;;;;;;;5015865;28;19915;-17
2022/01/27 03:37:35;;;;;;;;;;;;;;;;;;5015596;28;20325;-16
2022/01/27 03:40:01;;;;;;;;;;;;;;;;;;5015813;28;19964;-16
2022/01/27 03:42:27;;;;;;;;;;;;;;;;;;5015439;28;20408;-16
2022/01/27 03:44:53;;;;;;;;;;;;;;;;;;5015781;28;19914;-16
2022/01/27 03:47:19;;;;;;;;;;;;;;;;;;5015710;28;19916;-17
2022/01/27 03:49:45;;;;;;;;;;;;;;;;;;5015652;28;19988;-17
2022/01/27 03:52:11;;;;;;;;;;;;;;;;;;5015327;28;19952;-16
2022/01/27 03:54:37;;;;;;;;;;;;;;;;;;5015917;28;19913;-16
2022/01/27 03:57:03;;;;;;;;;;;;;;;;;;5015396;28;19918;-17
2022/01/27 03:59:29;;;;;;;;;;;;;;;;;;5015858;28;19914;-16
2022/01/27 04:01:56;;;;;;;;;;;;;;;;;;5015473;28;20352;-17
2022/01/27 04:04:22;;;;;;;;;;;;;;;;;;5015300;28;19929;-16
2022/01/27 04:06:51;;;;;;;;;;;;;;;;;;5015281;28;19921;-16
2022/01/27 04:09:18;;;;;;;;;;;;;;;;;;5015428;28;19918;-16
2022/01/27 04:11:44;;;;;;;;;;;;;;;;;;5015132;28;20004;-16
2022/01/27 04:14:12;;;;;;;;;;;;;;;;;;5015119;28;19913;-17
2022/01/27 04:16:38;;;;;;;;;;;;;;;;;;5015088;28;19968;-17
2022/01/27 04:19:04;;;;;;;;;;;;;;;;;;5015651;28;19913;-17
2022/01/27 04:21:30;;;;;;;;;;;;;;;;;;5014986;28;19925;-17
2022/01/27 04:23:56;;;;;;;;;;;;;;;;;;5014995;28;20000;-16
2022/01/27 04:26:31;;;;;;;;;;;;;;;;;;5015051;28;19914;-17
2022/01/27 04:28:57;;;;;;;;;;;;;;;;;;5015276;28;20000;-16
2022/01/27 04:31:25;;;;;;;;;;;;;;;;;;5014943;28;19913;-17
2022/01/27 04:33:52;;;;;;;;;;;;;;;;;;5017126;28;19963;-17
2022/01/27 04:36:31;;;;;;;;;;;;;;;;;;5019378;28;19913;-17
2022/01/27 04:39:15;;;;;;;;;;;;;;;;;;5019088;28;19913;-17
2022/01/27 04:41:57;;;;;;;;;;;;;;;;;;5018650;28;19925;-17
2022/01/27 04:44:31;;;;;;;;;;;;;;;;;;5018638;28;19914;-16
2022/01/27 04:47:05;;;;;;;;;;;;;;;;;;5018769;28;19909;-16
2022/01/27 04:49:31;;;;;;;;;;;;;;;;;;5018617;28;20276;-17
2022/01/27 04:51:57;;;;;;;;;;;;;;;;;;5018408;28;19939;-17
2022/01/27 04:54:30;;;;;;;;;;;;;;;;;;5018738;28;19913;-18
2022/01/27 04:57:00;;;;;;;;;;;;;;;;;;5017666;28;19916;-18
2022/01/27 04:59:29;;;;;;;;;;;;;;;;;;5018203;28;20361;-18
2022/01/27 05:04:34;;;;;;;;;;;;;;;;;;5015401;28;19937;-27
2022/01/27 05:07:00;;;;;;;;;;;;;;;;;;5018129;28;19944;-27
2022/01/27 05:09:26;;;;;;;;;;;;;;;;;;5018359;28;19910;-27
2022/01/27 05:12:13;;;;;;;;;;;;;;;;;;5000517;28;19920;-27
2022/01/27 05:14:39;;;;;;;;;;;;;;;;;;5017733;28;20004;-27
2022/01/27 05:17:05;;;;;;;;;;;;;;;;;;5017631;28;19972;-26
2022/01/27 05:19:31;;;;;;;;;;;;;;;;;;5017634;28;19920;-26
2022/01/27 05:21:57;;;;;;;;;;;;;;;;;;5017378;28;20288;-26
2022/01/27 05:24:23;;;;;;;;;;;;;;;;;;5017512;28;19914;-27
2022/01/27 05:26:49;;;;;;;;;;;;;;;;;;5017778;28;19916;-27
2022/01/27 05:29:15;;;;;;;;;;;;;;;;;;5017688;28;19944;-27
2022/01/27 05:31:43;;;;;;;;;;;;;;;;;;4999906;28;20011;-27
2022/01/27 05:34:09;;;;;;;;;;;;;;;;;;5017254;28;20430;-26
2022/01/27 05:36:35;;;;;;;;;;;;;;;;;;5016959;28;19913;-27
2022/01/27 05:39:01;;;;;;;;;;;;;;;;;;5017300;28;19914;-27
2022/01/27 05:41:27;;;;;;;;;;;;;;;;;;5017424;28;19924;-27
2022/01/27 05:43:53;;;;;;;;;;;;;;;;;;5017065;28;19929;-26
2022/01/27 05:46:19;;;;;;;;;;;;;;;;;;5016474;28;19909;-26
2022/01/27 05:48:45;;;;;;;;;;;;;;;;;;5017195;28;19924;-26
2022/01/27 05:51:12;;;;;;;;;;;;;;;;;;5017260;28;19957;-27
2022/01/27 05:53:38;;;;;;;;;;;;;;;;;;5017036;28;19976;-27
2022/01/27 05:56:04;;;;;;;;;;;;;;;;;;5016959;28;19964;-27
2022/01/27 05:58:30;;;;;;;;;;;;;;;;;;4999471;28;19913;-26
2022/01/27 06:00:56;;;;;;;;;;;;;;;;;;4999379;28;20216;-26
2022/01/27 06:03:22;;;;;;;;;;;;;;;;;;5016212;28;19922;-26
2022/01/27 06:05:48;;;;;;;;;;;;;;;;;;5016734;28;20225;-26
2022/01/27 06:08:14;;;;;;;;;;;;;;;;;;5016584;28;19972;-26
2022/01/27 06:10:40;;;;;;;;;;;;;;;;;;5016545;28;19913;-26
2022/01/27 06:13:06;;;;;;;;;;;;;;;;;;5016634;28;20306;-26
2022/01/27 06:18:24;;;;;;;;;;;;;;;;;;5016624;28;20259;-27
2022/01/27 06:20:50;;;;;;;;;;;;;;;;;;5016490;28;20352;-27
2022/01/27 06:23:16;;;;;;;;;;;;;;;;;;5016429;28;20271;-27
2022/01/27 06:25:42;;;;;;;;;;;;;;;;;;5016268;28;19920;-26
2022/01/27 06:28:10;;;;;;;;;;;;;;;;;;5016076;28;19996;-25
2022/01/27 06:30:37;;;;;;;;;;;;;;;;;;4998517;28;19938;-25
2022/01/27 06:33:03;;;;;;;;;;;;;;;;;;5016140;28;19913;-26
2022/01/27 06:35:29;;;;;;;;;;;;;;;;;;5015753;28;19913;-25
2022/01/27 06:37:56;;;;;;;;;;;;;;;;;;5016414;28;19913;-25
2022/01/27 06:40:23;;;;;;;;;;;;;;;;;;5016035;28;19920;-26
2022/01/27 06:42:50;;;;;;;;;;;;;;;;;;5016194;28;19991;-26
2022/01/27 06:45:16;;;;;;;;;;;;;;;;;;5016061;28;19913;-26
2022/01/27 06:47:43;;;;;;;;;;;;;;;;;;5016054;28;19973;-24
2022/01/27 06:50:10;;;;;;;;;;;;;;;;;;5015997;28;19914;-26
2022/01/27 06:52:36;;;;;;;;;;;;;;;;;;5016149;28;19909;-25
2022/01/27 06:55:04;;;;;;;;;;;;;;;;;;5015573;28;19921;-25
2022/01/27 06:57:33;;;;;;;;;;;;;;;;;;5014913;28;19910;-25
2022/01/27 06:59:59;;;;;;;;;;;;;;;;;;5015678;28;19921;-25
2022/01/27 07:02:26;;;;;;;;;;;;;;;;;;4997737;28;19937;-26
2022/01/27 07:04:52;;;;;;;;;;;;;;;;;;5015328;28;20348;-26
2022/01/27 07:07:18;;;;;;;;;;;;;;;;;;4998102;28;19963;-33
2022/01/27 07:09:44;;;;;;;;;;;;;;;;;;4998212;28;19914;-26
2022/01/27 07:12:10;;;;;;;;;;;;;;;;;;5014996;28;19921;-25
2022/01/27 07:14:36;;;;;;;;;;;;;;;;;;5015221;28;19910;-25
2022/01/27 07:17:12;;;;;;;;;;;;;;;;;;5153855;27;20323;-31
2022/01/27 07:19:38;;;;;;;;;;;;;;;;;;5134806;27;20261;-31
2022/01/27 07:22:05;;;;;;;;;;;;;;;;;;5152828;27;20218;-30
2022/01/27 07:24:33;;;;;;;;;;;;;;;;;;5151715;27;19911;-29
2022/01/27 07:26:59;;;;;;;;;;;;;;;;;;5152825;27;20013;-28
2022/01/27 07:29:26;;;;;;;;;;;;;;;;;;5153183;27;19907;-31
2022/01/27 07:31:52;;;;;;;;;;;;;;;;;;5151648;27;19915;-28
2022/01/27 07:34:18;;;;;;;;;;;;;;;;;;5152568;27;19967;-27
2022/01/27 07:36:44;;;;;;;;;;;;;;;;;;5152686;27;19915;-28
2022/01/27 07:39:16;;;;;;;;;;;;;;;;;;5152726;27;19918;-26
2022/01/27 07:41:45;;;;;;;;;;;;;;;;;;5151860;27;19919;-29
2022/01/27 07:44:11;;;;;;;;;;;;;;;;;;5153049;27;20023;-33
2022/01/27 07:46:38;;;;;;;;;;;;;;;;;;5152794;27;19911;-31
2022/01/27 07:49:04;;;;;;;;;;;;;;;;;;5153159;27;19907;-30
2022/01/27 07:51:31;;;;;;;;;;;;;;;;;;5152742;27;19911;-29
2022/01/27 07:53:57;;;;;;;;;;;;;;;;;;5152903;27;19912;-26
2022/01/27 07:56:23;;;;;;;;;;;;;;;;;;5151870;27;19915;-26
2022/01/27 07:58:49;;;;;;;;;;;;;;;;;;5152766;27;19939;-26
2022/01/27 08:01:15;;;;;;;;;;;;;;;;;;5152761;27;19919;-32
2022/01/27 08:03:41;;;;;;;;;;;;;;;;;;5153053;27;19943;-31
2022/01/27 08:06:07;;;;;;;;;;;;;;;;;;5152805;27;19919;-31
2022/01/27 08:08:34;;;;;;;;;;;;;;;;;;5152625;27;20249;-30
2022/01/27 08:11:02;;;;;;;;;;;;;;;;;;5152526;27;20239;-35
2022/01/27 08:13:29;;;;;;;;;;;;;;;;;;5152552;27;19915;-29
2022/01/27 08:15:55;;;;;;;;;;;;;;;;;;5156184;27;19919;-28
2022/01/27 08:18:23;;;;;;;;;;;;;;;;;;5152456;27;19932;-29
2022/01/27 08:20:51;;;;;;;;;;;;;;;;;;5152326;27;19912;-27
2022/01/27 08:23:17;;;;;;;;;;;;;;;;;;5152117;27;19903;-27
2022/01/27 08:25:49;;;;;;;;;;;;;;;;;;5152158;27;19949;-34
2022/01/27 08:28:22;;;;;;;;;;;;;;;;;;5139935;27;19907;-28
2022/01/27 08:30:51;;;;;;;;;;;;;;;;;;5137489;27;19919;-27
2022/01/27 08:33:19;;;;;;;;;;;;;;;;;;5138564;27;20254;-30
2022/01/27 08:35:46;;;;;;;;;;;;;;;;;;5138328;27;19918;-29
2022/01/27 08:38:14;;;;;;;;;;;;;;;;;;5137114;27;19912;-31
2022/01/27 08:40:40;;;;;;;;;;;;;;;;;;5138097;27;19907;-28
2022/01/27 08:43:08;;;;;;;;;;;;;;;;;;5138165;27;19919;-29
2022/01/27 08:45:38;;;;;;;;;;;;;;;;;;5138031;27;20247;-31
2022/01/27 08:48:04;;;;;;;;;;;;;;;;;;5138280;27;20305;-26
2022/01/27 08:50:31;;;;;;;;;;;;;;;;;;5138321;27;20346;-27
2022/01/27 08:52:58;;;;;;;;;;;;;;;;;;5137757;27;19915;-31
2022/01/27 08:55:24;;;;;;;;;;;;;;;;;;5138243;27;19995;-31
2022/01/27 08:57:51;;;;;;;;;;;;;;;;;;5137688;27;20372;-31
2022/01/27 09:00:21;;;;;;;;;;;;;;;;;;5137636;27;20263;-29
2022/01/27 09:02:48;;;;;;;;;;;;;;;;;;5137366;27;19919;-29
2022/01/27 09:05:14;;;;;;;;;;;;;;;;;;5137675;27;19915;-27
2022/01/27 09:07:43;;;;;;;;;;;;;;;;;;5137537;27;19907;-25
2022/01/27 09:10:09;;;;;;;;;;;;;;;;;;5137022;27;20302;-29
2022/01/27 09:12:35;;;;;;;;;;;;;;;;;;5137037;27;19911;-30
2022/01/27 09:15:02;;;;;;;;;;;;;;;;;;5137261;27;19915;-33
2022/01/27 09:17:30;;;;;;;;;;;;;;;;;;5136960;27;19984;-37
2022/01/27 09:19:57;;;;;;;;;;;;;;;;;;5137700;27;19919;-27
2022/01/27 09:22:23;;;;;;;;;;;;;;;;;;5137043;27;20269;-26
2022/01/27 09:24:55;;;;;;;;;;;;;;;;;;5137270;27;19907;-28
2022/01/27 09:27:25;;;;;;;;;;;;;;;;;;5137158;27;20349;-27
2022/01/27 09:29:51;;;;;;;;;;;;;;;;;;5136851;27;19919;-31
2022/01/27 09:32:18;;;;;;;;;;;;;;;;;;5136528;27;19907;-28
2022/01/27 09:34:44;;;;;;;;;;;;;;;;;;5136821;27;19911;-25
2022/01/27 09:37:10;;;;;;;;;;;;;;;;;;5137057;27;20253;-29
2022/01/27 09:39:38;;;;;;;;;;;;;;;;;;5135829;27;19998;-30
2022/01/27 09:42:04;;;;;;;;;;;;;;;;;;5136473;27;19908;-32
2022/01/27 09:44:32;;;;;;;;;;;;;;;;;;5136536;27;19922;-28
2022/01/27 09:46:59;;;;;;;;;;;;;;;;;;5136141;27;19918;-28
2022/01/27 09:49:34;;;;;;;;;;;;;;;;;;5136029;27;19975;-31
2022/01/27 09:52:01;;;;;;;;;;;;;;;;;;5135926;27;19907;-31
2022/01/27 09:54:28;;;;;;;;;;;;;;;;;;5136187;27;19911;-29
2022/01/27 09:56:54;;;;;;;;;;;;;;;;;;5135919;27;20353;-28
2022/01/27 09:59:21;;;;;;;;;;;;;;;;;;5135825;27;19912;-34
2022/01/27 10:01:47;;;;;;;;;;;;;;;;;;5135640;27;20238;-29
2022/01/27 10:04:14;;;;;;;;;;;;;;;;;;5134776;27;19963;-31
2022/01/27 10:06:40;;;;;;;;;;;;;;;;;;5135664;27;19912;-30
2022/01/27 10:09:06;;;;;;;;;;;;;;;;;;5135585;27;19949;-27
2022/01/27 10:11:34;;;;;;;;;;;;;;;;;;5135861;27;19908;-26
2022/01/27 10:14:02;;;;;;;;;;;;;;;;;;5135467;27;20009;-32
2022/01/27 10:16:28;;;;;;;;;;;;;;;;;;5133978;27;19920;-31
2022/01/27 10:18:55;;;;;;;;;;;;;;;;;;5135742;27;19922;-28
2022/01/27 10:21:22;;;;;;;;;;;;;;;;;;5134214;27;19934;-31
2022/01/27 10:23:51;;;;;;;;;;;;;;;;;;5135471;27;20048;-32
2022/01/27 10:26:19;;;;;;;;;;;;;;;;;;5135680;27;19943;-29
2022/01/27 10:28:49;;;;;;;;;;;;;;;;;;5136039;27;20027;-27
2022/01/27 10:31:23;;;;;;;;;;;;;;;;;;5135887;27;19907;-30
2022/01/27 10:33:49;;;;;;;;;;;;;;;;;;5135776;27;19955;-30
2022/01/27 10:36:17;;;;;;;;;;;;;;;;;;5134346;27;19911;-27
2022/01/27 10:38:43;;;;;;;;;;;;;;;;;;5135592;27;19991;-27
2022/01/27 10:41:11;;;;;;;;;;;;;;;;;;5135872;27;19919;-29
2022/01/27 10:43:39;;;;;;;;;;;;;;;;;;5135485;27;19911;-26
2022/01/27 10:46:11;;;;;;;;;;;;;;;;;;5135717;27;19907;-30
2022/01/27 10:48:37;;;;;;;;;;;;;;;;;;5134505;27;19922;-28
2022/01/27 10:53:31;;;;;;;;;;;;;;;;;;5135296;27;19915;-26
2022/01/27 10:55:58;;;;;;;;;;;;;;;;;;5135179;27;19915;-31
2022/01/27 10:58:27;;;;;;;;;;;;;;;;;;5134145;27;19911;-25
2022/01/27 11:00:58;;;;;;;;;;;;;;;;;;5135747;27;19911;-30
2022/01/27 11:03:27;;;;;;;;;;;;;;;;;;5135137;27;19907;-28
2022/01/27 11:05:59;;;;;;;;;;;;;;;;;;5135710;27;19961;-32
2022/01/27 11:08:30;;;;;;;;;;;;;;;;;;5135273;27;19911;-31
2022/01/27 11:10:57;;;;;;;;;;;;;;;;;;5135105;27;19949;-30
2022/01/27 11:13:24;;;;;;;;;;;;;;;;;;5133906;27;19936;-33
2022/01/27 11:15:51;;;;;;;;;;;;;;;;;;5134850;28;20261;-29
2022/01/27 11:18:20;;;;;;;;;;;;;;;;;;5135296;28;19907;-28
2022/01/27 11:24:00;;;;;;;;;;;;;;;;;;5135006;28;20272;-28
2022/01/27 11:26:02;;;;;;;;;;;;;;;;;;5134325;28;19916;-30
2022/01/27 11:28:32;;;;;;;;;;;;;;;;;;5135086;28;19929;-27
2022/01/27 11:31:01;;;;;;;;;;;;;;;;;;5135517;28;19915;-26
2022/01/27 11:33:30;;;;;;;;;;;;;;;;;;5135081;28;19912;-31
2022/01/27 11:35:56;;;;;;;;;;;;;;;;;;5135189;28;20338;-26
2022/01/27 11:38:22;;;;;;;;;;;;;;;;;;5135577;28;19950;-31
2022/01/27 11:40:48;;;;;;;;;;;;;;;;;;5135028;28;20398;-31
2022/01/27 11:43:14;;;;;;;;;;;;;;;;;;5134918;28;19912;-30
2022/01/27 11:45:42;;;;;;;;;;;;;;;;;;5135344;28;19915;-27
2022/01/27 11:48:11;;;;;;;;;;;;;;;;;;5134887;28;19911;-29
2022/01/27 11:50:39;;;;;;;;;;;;;;;;;;5134836;28;20372;-28
2022/01/27 11:53:05;;;;;;;;;;;;;;;;;;5134909;28;19960;-25
2022/01/27 11:55:31;;;;;;;;;;;;;;;;;;5134176;28;19963;-34
2022/01/27 11:57:57;;;;;;;;;;;;;;;;;;5134048;28;19907;-26
2022/01/27 12:00:24;;;;;;;;;;;;;;;;;;5133713;28;19923;-31
2022/01/27 12:02:50;;;;;;;;;;;;;;;;;;5135962;27;19945;-28
2022/01/27 12:05:17;;;;;;;;;;;;;;;;;;5137562;27;19912;-33
2022/01/27 12:07:45;;;;;;;;;;;;;;;;;;5137633;27;19995;-27
2022/01/27 12:10:11;;;;;;;;;;;;;;;;;;5136479;27;20206;-26
2022/01/27 12:12:39;;;;;;;;;;;;;;;;;;5137979;27;20289;-24
2022/01/27 12:15:08;;;;;;;;;;;;;;;;;;5136335;27;19918;-30
2022/01/27 12:17:36;;;;;;;;;;;;;;;;;;5135978;27;19919;-28
2022/01/27 12:20:02;;;;;;;;;;;;;;;;;;5137275;27;19922;-28
2022/01/27 12:22:30;;;;;;;;;;;;;;;;;;5137492;27;19964;-26
2022/01/27 12:24:57;;;;;;;;;;;;;;;;;;5137957;27;19967;-27
2022/01/27 12:27:23;;;;;;;;;;;;;;;;;;5137362;27;19912;-27
2022/01/27 12:29:49;;;;;;;;;;;;;;;;;;5138170;27;19912;-30
2022/01/27 12:32:15;;;;;;;;;;;;;;;;;;5138167;27;20360;-30
2022/01/27 12:37:45;;;;;;;;;;;;;;;;;;5138447;27;19926;-32
2022/01/27 12:40:11;;;;;;;;;;;;;;;;;;5138231;27;19916;-30
2022/01/27 12:42:39;;;;;;;;;;;;;;;;;;5138291;27;20401;-25
2022/01/27 12:45:06;;;;;;;;;;;;;;;;;;5138262;27;19912;-27
2022/01/27 12:47:32;;;;;;;;;;;;;;;;;;5137998;27;19911;-33
2022/01/27 12:50:07;;;;;;;;;;;;;;;;;;5136750;27;20341;-28
2022/01/27 12:52:38;;;;;;;;;;;;;;;;;;5137317;27;19918;-31
2022/01/27 12:55:04;;;;;;;;;;;;;;;;;;5137383;27;19958;-29
2022/01/27 12:57:30;;;;;;;;;;;;;;;;;;5137316;27;19918;-28
2022/01/27 12:59:58;;;;;;;;;;;;;;;;;;5137470;27;20246;-28
2022/01/27 13:02:24;;;;;;;;;;;;;;;;;;5137675;27;20320;-30
2022/01/27 13:04:50;;;;;;;;;;;;;;;;;;5137726;27;19969;-26
2022/01/27 13:07:18;;;;;;;;;;;;;;;;;;5137243;27;20348;-29
2022/01/27 13:09:46;;;;;;;;;;;;;;;;;;5137386;27;19912;-31
2022/01/27 13:12:12;;;;;;;;;;;;;;;;;;5137234;27;19990;-32
2022/01/27 13:14:40;;;;;;;;;;;;;;;;;;5136864;27;20253;-31
2022/01/27 13:17:10;;;;;;;;;;;;;;;;;;5137045;27;19988;-29
2022/01/27 13:19:42;;;;;;;;;;;;;;;;;;5137281;27;19907;-30
2022/01/27 13:22:16;;;;;;;;;;;;;;;;;;5137252;27;20379;-33
2022/01/27 13:24:43;;;;;;;;;;;;;;;;;;5137155;27;19976;-31
2022/01/27 13:27:09;;;;;;;;;;;;;;;;;;5137086;27;19907;-31
2022/01/27 13:29:35;;;;;;;;;;;;;;;;;;5137596;27;20233;-28
2022/01/27 13:32:02;;;;;;;;;;;;;;;;;;5136786;27;20303;-29
2022/01/27 13:34:28;;;;;;;;;;;;;;;;;;5137255;27;19925;-26
2022/01/27 13:36:54;;;;;;;;;;;;;;;;;;5137052;27;19919;-29
2022/01/27 13:42:09;;;;;;;;;;;;;;;;;;5106686;27;19914;-28
2022/01/27 13:44:37;;;;;;;;;;;;;;;;;;5136651;27;19961;-29
2022/01/27 13:47:03;;;;;;;;;;;;;;;;;;5136575;27;19908;-27
2022/01/27 13:49:32;;;;;;;;;;;;;;;;;;5136709;27;19942;-30
2022/01/27 13:51:58;;;;;;;;;;;;;;;;;;5136427;27;19918;-29
2022/01/27 13:54:25;;;;;;;;;;;;;;;;;;5136531;27;20253;-34
2022/01/27 13:56:52;;;;;;;;;;;;;;;;;;5136586;27;19946;-29
2022/01/27 13:59:22;;;;;;;;;;;;;;;;;;5135910;27;19922;-35
2022/01/27 14:01:50;;;;;;;;;;;;;;;;;;5135831;27;20306;-32
2022/01/27 14:04:17;;;;;;;;;;;;;;;;;;5136062;27;19911;-28
2022/01/27 14:06:43;;;;;;;;;;;;;;;;;;5136255;27;19918;-31
2022/01/27 14:09:11;;;;;;;;;;;;;;;;;;5136390;27;19918;-27
2022/01/27 14:11:41;;;;;;;;;;;;;;;;;;5136099;27;19911;-25
2022/01/27 14:14:08;;;;;;;;;;;;;;;;;;5136869;27;19934;-33
2022/01/27 14:16:35;;;;;;;;;;;;;;;;;;5135399;27;19919;-26
2022/01/27 14:19:02;;;;;;;;;;;;;;;;;;5136405;27;19998;-34
2022/01/27 14:21:28;;;;;;;;;;;;;;;;;;5136167;27;19907;-31
2022/01/27 14:29:00;;;;;;;;;;;;;;;;;;5136082;27;20257;-27
2022/01/27 14:31:26;;;;;;;;;;;;;;;;;;5135991;27;20249;-28
2022/01/27 14:33:52;;;;;;;;;;;;;;;;;;5135958;27;19919;-28
2022/01/27 14:36:18;;;;;;;;;;;;;;;;;;5136086;27;19915;-27
2022/01/27 14:38:47;;;;;;;;;;;;;;;;;;5135931;27;20237;-30
2022/01/27 14:41:15;;;;;;;;;;;;;;;;;;5135500;27;19912;-27
2022/01/27 14:43:41;;;;;;;;;;;;;;;;;;5134328;27;19995;-28
2022/01/27 14:46:09;;;;;;;;;;;;;;;;;;5135449;27;20048;-25
2022/01/27 14:48:38;;;;;;;;;;;;;;;;;;5135313;27;19919;-27
2022/01/27 14:51:08;;;;;;;;;;;;;;;;;;5135282;27;20373;-25
2022/01/27 14:53:35;;;;;;;;;;;;;;;;;;5135539;27;20276;-29
2022/01/27 14:56:02;;;;;;;;;;;;;;;;;;5135523;27;19955;-27
2022/01/27 14:58:29;;;;;;;;;;;;;;;;;;5135546;27;19915;-27
2022/01/27 15:00:55;;;;;;;;;;;;;;;;;;5135831;27;20262;-29
2022/01/27 15:03:22;;;;;;;;;;;;;;;;;;5135457;27;19911;-32
2022/01/27 15:05:48;;;;;;;;;;;;;;;;;;5134465;27;19926;-27
2022/01/27 15:08:15;;;;;;;;;;;;;;;;;;5135798;27;19919;-28
2022/01/27 15:10:43;;;;;;;;;;;;;;;;;;5135405;27;20387;-29
2022/01/27 15:13:12;;;;;;;;;;;;;;;;;;5135196;27;20349;-26
2022/01/27 15:21:08;;;;;;;;;;;;;;;;;;5135258;28;19961;-28
2022/01/27 15:23:37;;;;;;;;;;;;;;;;;;5135223;28;19916;-25
2022/01/27 15:26:05;;;;;;;;;;;;;;;;;;5135294;28;19911;-29
2022/01/27 15:28:34;;;;;;;;;;;;;;;;;;5135029;28;20253;-32
2022/01/27 15:31:02;;;;;;;;;;;;;;;;;;5134198;28;19983;-31
2022/01/27 15:33:31;;;;;;;;;;;;;;;;;;5134087;28;20226;-30
2022/01/27 15:35:57;;;;;;;;;;;;;;;;;;5133994;27;20264;-30
2022/01/27 15:38:27;;;;;;;;;;;;;;;;;;5138782;27;19919;-33
2022/01/27 15:40:55;;;;;;;;;;;;;;;;;;5139572;27;19962;-29
2022/01/27 15:43:22;;;;;;;;;;;;;;;;;;5139333;27;19911;-28
2022/01/27 15:45:49;;;;;;;;;;;;;;;;;;5138307;27;19973;-29
2022/01/27 15:48:17;;;;;;;;;;;;;;;;;;5139278;27;20281;-30
2022/01/27 15:50:44;;;;;;;;;;;;;;;;;;5138965;27;19975;-26
2022/01/27 15:53:11;;;;;;;;;;;;;;;;;;5138838;27;20254;-28
2022/01/27 15:55:39;;;;;;;;;;;;;;;;;;5139199;27;20345;-31
2022/01/27 15:58:05;;;;;;;;;;;;;;;;;;5139049;27;19918;-30
2022/01/27 16:00:33;;;;;;;;;;;;;;;;;;5138948;27;20207;-26
2022/01/27 16:03:02;;;;;;;;;;;;;;;;;;5138441;27;19912;-30
2022/01/27 16:05:28;;;;;;;;;;;;;;;;;;5137657;27;19911;-30
2022/01/27 16:07:54;;;;;;;;;;;;;;;;;;5138970;27;20043;-29
2022/01/27 16:10:20;;;;;;;;;;;;;;;;;;5137189;27;19994;-29
2022/01/27 16:12:52;;;;;;;;;;;;;;;;;;5138323;27;19911;-27
2022/01/27 16:15:20;;;;;;;;;;;;;;;;;;5136797;27;19921;-31
2022/01/27 16:17:46;;;;;;;;;;;;;;;;;;5137798;27;20334;-30
2022/01/27 16:20:14;;;;;;;;;;;;;;;;;;5137922;27;19916;-32
2022/01/27 16:22:40;;;;;;;;;;;;;;;;;;5138023;27;20010;-31
2022/01/27 16:25:07;;;;;;;;;;;;;;;;;;5137764;27;19907;-27
2022/01/27 16:27:34;;;;;;;;;;;;;;;;;;5137738;27;20006;-25
2022/01/27 16:30:01;;;;;;;;;;;;;;;;;;5137099;27;20251;-34
2022/01/27 16:32:30;;;;;;;;;;;;;;;;;;5137827;27;19911;-28
2022/01/27 16:34:56;;;;;;;;;;;;;;;;;;5137714;27;19907;-28
2022/01/27 16:37:22;;;;;;;;;;;;;;;;;;5137389;27;19928;-28
2022/01/27 16:39:48;;;;;;;;;;;;;;;;;;5137809;27;19973;-30
2022/01/27 16:42:14;;;;;;;;;;;;;;;;;;5138211;27;20293;-28
2022/01/27 16:44:40;;;;;;;;;;;;;;;;;;5138202;27;19911;-32
2022/01/27 16:47:06;;;;;;;;;;;;;;;;;;5138012;27;19950;-28
2022/01/27 16:49:32;;;;;;;;;;;;;;;;;;5137361;27;19922;-29
2022/01/27 16:52:00;;;;;;;;;;;;;;;;;;5136603;27;19912;-26
2022/01/27 16:54:27;;;;;;;;;;;;;;;;;;5137893;27;19912;-31
2022/01/27 16:56:53;;;;;;;;;;;;;;;;;;5136616;27;19911;-29
2022/01/27 16:59:21;;;;;;;;;;;;;;;;;;5137639;27;19927;-30
2022/01/27 17:01:47;;;;;;;;;;;;;;;;;;5137615;27;19907;-27
2022/01/27 17:04:22;;;;;;;;;;;;;;;;;;5136414;27;19911;-31
2022/01/27 17:06:49;;;;;;;;;;;;;;;;;;5136465;27;19912;-26
2022/01/27 17:09:16;;;;;;;;;;;;;;;;;;5136451;27;20326;-31
2022/01/27 17:11:42;;;;;;;;;;;;;;;;;;5137547;27;19963;-27
2022/01/27 17:14:08;;;;;;;;;;;;;;;;;;5137585;27;19971;-29
2022/01/27 17:16:36;;;;;;;;;;;;;;;;;;5136050;27;19920;-28
2022/01/27 17:19:02;;;;;;;;;;;;;;;;;;5137297;27;20434;-31
2022/01/27 17:21:29;;;;;;;;;;;;;;;;;;5137617;27;19919;-32
2022/01/27 17:23:57;;;;;;;;;;;;;;;;;;5137309;27;19956;-32
2022/01/27 17:26:23;;;;;;;;;;;;;;;;;;5137198;27;19926;-30
2022/01/27 17:28:51;;;;;;;;;;;;;;;;;;5137547;27;19907;-30
2022/01/27 17:31:19;;;;;;;;;;;;;;;;;;5137970;27;19915;-24
2022/01/27 17:33:45;;;;;;;;;;;;;;;;;;5136924;27;19911;-26
2022/01/27 17:36:11;;;;;;;;;;;;;;;;;;5136905;27;19930;-28
2022/01/27 17:38:37;;;;;;;;;;;;;;;;;;5137165;27;19915;-26
2022/01/27 17:41:04;;;;;;;;;;;;;;;;;;5136839;27;20372;-28
2022/01/27 17:43:43;;;;;;;;;;;;;;;;;;5136719;27;19908;-33
2022/01/27 17:46:10;;;;;;;;;;;;;;;;;;5135659;27;19918;-26
2022/01/27 17:48:36;;;;;;;;;;;;;;;;;;5135595;27;20388;-26
2022/01/27 17:51:04;;;;;;;;;;;;;;;;;;5136582;27;19922;-25
2022/01/27 17:53:34;;;;;;;;;;;;;;;;;;5136793;27;19908;-28
2022/01/27 17:56:00;;;;;;;;;;;;;;;;;;5136441;27;19927;-29